Time;durP1;ratioP1;P1;durP2;ratioP2;P2;SDS_P1;SDS_P2;PMS_P1;PMS_P2;Temp;Humidity;BMP_temperature;BMP_pressure;BME280_temperature;BME280_humidity;BME280_pressure;Samples;Min_cycle;Max_cycle;Signal;HPM_P1;HPM_P2
2024/03/28 00:02:48;;;;;;;8.30;4.40;;;;;;;10.73;57.52;97982.75;131500;1255;107798;-82
2024/03/28 00:05:57;;;;;;;7.20;4.50;;;;;;;10.70;57.41;97980.49;131514;1254;106401;-82
2024/03/28 00:09:03;;;;;;;8.60;4.30;;;;;;;10.68;57.43;97973.05;131491;1248;107998;-82
2024/03/28 00:12:09;;;;;;;9.30;5.00;;;;;;;10.63;57.66;97965.80;131642;1254;106490;-83
2024/03/28 00:15:15;;;;;;;10.20;5.30;;;;;;;10.57;57.53;97966.95;131526;1253;107725;-82
2024/03/28 00:18:20;;;;;;;8.70;5.40;;;;;;;10.51;57.74;97963.52;131439;1254;107620;-82
2024/03/28 00:21:25;;;;;;;11.10;5.70;;;;;;;10.44;57.82;97957.40;131528;1252;107518;-82
2024/03/28 00:24:30;;;;;;;13.60;6.00;;;;;;;10.38;58.22;97967.37;131419;1254;108423;-82
2024/03/28 00:27:36;;;;;;;10.10;6.40;;;;;;;10.33;58.00;97963.70;131604;1252;108704;-85
2024/03/28 00:30:41;;;;;;;12.20;6.60;;;;;;;10.28;57.99;97958.35;131466;1252;108688;-82
2024/03/28 00:33:46;;;;;;;11.10;6.30;;;;;;;10.23;58.27;97953.70;131517;1254;106335;-83
2024/03/28 00:36:51;;;;;;;11.10;6.70;;;;;;;10.19;58.43;97951.30;131549;1261;107816;-82
2024/03/28 00:39:57;;;;;;;13.00;7.20;;;;;;;10.14;58.25;97953.44;131481;1263;108483;-82
2024/03/28 00:43:02;;;;;;;12.90;7.30;;;;;;;10.10;58.67;97952.16;131455;1252;107615;-82
2024/03/28 00:46:07;;;;;;;12.90;7.20;;;;;;;10.07;58.61;97945.95;131444;1253;106604;-84
2024/03/28 00:49:13;;;;;;;12.70;7.20;;;;;;;10.05;58.82;97935.25;131698;1254;106921;-84
2024/03/28 00:52:19;;;;;;;13.10;7.40;;;;;;;10.02;58.92;97936.11;131517;1248;106866;-84
2024/03/28 00:55:24;;;;;;;13.00;7.60;;;;;;;10.01;59.13;97934.89;131583;1253;107672;-84
2024/03/28 00:58:29;;;;;;;12.20;7.10;;;;;;;10.00;59.13;97935.55;131488;1248;108920;-84
2024/03/28 01:01:34;;;;;;;12.70;7.30;;;;;;;10.00;59.37;97933.90;131459;1252;108649;-84
2024/03/28 01:04:40;;;;;;;10.60;6.70;;;;;;;9.99;59.50;97932.59;131484;1248;108068;-84
2024/03/28 01:07:45;;;;;;;11.00;6.70;;;;;;;9.99;59.31;97933.49;131450;1247;107659;-84
2024/03/28 01:10:51;;;;;;;12.40;6.60;;;;;;;10.00;59.36;97930.95;131530;1252;107784;-83
2024/03/28 01:13:56;;;;;;;11.90;6.30;;;;;;;10.00;59.16;97928.11;131468;1255;108851;-83
2024/03/28 01:17:02;;;;;;;13.00;6.80;;;;;;;9.98;59.60;97928.13;131441;1262;105633;-83
2024/03/28 01:20:09;;;;;;;10.70;6.80;;;;;;;9.96;59.58;97928.90;131557;1253;108652;-83
2024/03/28 01:23:14;;;;;;;11.50;6.40;;;;;;;9.97;59.75;97919.07;131483;1254;107684;-84
2024/03/28 01:26:19;;;;;;;10.00;6.00;;;;;;;9.96;59.87;97918.11;131604;1248;107824;-83
2024/03/28 01:29:24;;;;;;;10.10;6.20;;;;;;;9.96;59.68;97909.69;131503;1248;108507;-82
2024/03/28 01:32:29;;;;;;;11.80;6.50;;;;;;;9.95;59.95;97907.66;131666;1248;107691;-83
2024/03/28 01:35:38;;;;;;;10.60;6.50;;;;;;;9.94;60.06;97907.95;131611;1251;108800;-82
2024/03/28 01:38:43;;;;;;;10.00;6.20;;;;;;;9.94;60.25;97900.83;131700;1254;108626;-82
2024/03/28 01:41:51;;;;;;;11.20;6.50;;;;;;;9.95;60.33;97899.84;131489;1255;106526;-83
2024/03/28 01:44:57;;;;;;;14.60;6.80;;;;;;;9.95;60.37;97892.30;131522;1251;106521;-83
2024/03/28 01:48:03;;;;;;;11.70;6.30;;;;;;;9.98;60.29;97888.25;131607;1247;107463;-83
2024/03/28 01:51:09;;;;;;;11.60;6.00;;;;;;;10.01;60.30;97880.94;131645;1252;108124;-83
2024/03/28 01:54:16;;;;;;;9.10;5.40;;;;;;;10.03;60.57;97875.07;131489;1248;107382;-83
2024/03/28 01:57:22;;;;;;;10.20;5.80;;;;;;;10.08;60.61;97877.16;131537;1248;106594;-83
2024/03/28 02:00:29;;;;;;;9.80;5.70;;;;;;;10.12;60.55;97880.46;131450;1251;107762;-83
2024/03/28 02:03:35;;;;;;;13.90;5.30;;;;;;;10.14;60.29;97875.17;131344;1254;108186;-83
2024/03/28 02:06:41;;;;;;;7.90;5.40;;;;;;;10.17;60.39;97874.59;131367;1251;107272;-82
2024/03/28 02:09:46;;;;;;;11.90;6.20;;;;;;;10.19;60.37;97872.00;131414;1254;107803;-83
2024/03/28 02:12:51;;;;;;;10.60;6.20;;;;;;;10.23;60.78;97872.69;131380;1251;107374;-83
2024/03/28 02:15:57;;;;;;;9.10;5.60;;;;;;;10.27;60.49;97869.98;131600;1263;106482;-83
2024/03/28 02:19:03;;;;;;;10.40;5.80;;;;;;;10.30;60.70;97874.48;131493;1248;107896;-83
2024/03/28 02:22:08;;;;;;;11.50;5.50;;;;;;;10.33;60.92;97863.59;131529;1248;108612;-85
2024/03/28 02:25:13;;;;;;;9.50;6.00;;;;;;;10.36;60.60;97864.23;131490;1251;107471;-82
2024/03/28 02:28:18;;;;;;;9.80;6.00;;;;;;;10.39;60.70;97853.77;131517;1254;106191;-85
2024/03/28 02:31:23;;;;;;;10.00;5.90;;;;;;;10.40;60.74;97856.02;131531;1253;108741;-82
2024/03/28 02:34:29;;;;;;;8.80;5.40;;;;;;;10.42;60.63;97853.48;131589;1254;106756;-85
2024/03/28 02:37:34;;;;;;;9.00;5.70;;;;;;;10.43;60.55;97848.55;131616;1248;107318;-85
2024/03/28 02:40:39;;;;;;;8.50;5.90;;;;;;;10.43;60.91;97848.88;131602;1253;108525;-84
2024/03/28 02:43:45;;;;;;;10.30;6.30;;;;;;;10.41;60.59;97851.42;131657;1248;108770;-85
2024/03/28 02:46:50;;;;;;;8.70;5.70;;;;;;;10.40;60.79;97847.20;131458;1254;108420;-82
2024/03/28 02:49:55;;;;;;;10.20;6.00;;;;;;;10.39;60.79;97846.59;131606;1253;106815;-82
2024/03/28 02:53:01;;;;;;;12.00;6.40;;;;;;;10.40;61.05;97838.52;131518;1251;107564;-82
2024/03/28 02:56:06;;;;;;;9.40;6.30;;;;;;;10.41;60.94;97840.35;131448;1261;107007;-84
2024/03/28 02:59:12;;;;;;;11.60;6.20;;;;;;;10.41;60.97;97834.93;131513;1252;107659;-82
2024/03/28 03:02:18;;;;;;;9.20;6.20;;;;;;;10.43;61.14;97830.05;131568;1254;107651;-82
2024/03/28 03:05:23;;;;;;;10.30;6.40;;;;;;;10.46;61.10;97821.55;131470;1248;107397;-82
2024/03/28 03:08:28;;;;;;;10.70;6.50;;;;;;;10.48;60.87;97820.02;131481;1251;106232;-82
2024/03/28 03:11:33;;;;;;;8.50;6.20;;;;;;;10.49;61.02;97813.94;131535;1248;107556;-82
2024/03/28 03:14:39;;;;;;;11.00;6.30;;;;;;;10.51;60.89;97816.68;131546;1251;107565;-82
2024/03/28 03:17:44;;;;;;;12.40;6.90;;;;;;;10.52;61.08;97811.74;131500;1248;108411;-82
2024/03/28 03:21:00;;;;;;;9.70;5.90;;;;;;;10.52;61.12;97807.70;131654;1251;106828;-84
2024/03/28 03:24:10;;;;;;;10.90;6.40;;;;;;;10.51;61.30;97799.95;131731;1253;106616;-84
2024/03/28 03:27:17;;;;;;;12.80;6.40;;;;;;;10.50;61.08;97802.56;131647;1251;108038;-84
2024/03/28 03:37:13;;;;;;;9.00;5.80;;;;;;;10.56;61.27;97801.77;131511;1248;107142;-82
2024/03/28 03:40:19;;;;;;;11.70;6.80;;;;;;;10.57;61.01;97801.75;131655;1251;106127;-83
2024/03/28 03:43:24;;;;;;;11.90;6.80;;;;;;;10.60;61.30;97797.89;131306;1251;106507;-83
2024/03/28 03:46:30;;;;;;;12.40;6.70;;;;;;;10.62;61.54;97794.93;131271;1251;108227;-83
2024/03/28 03:49:35;;;;;;;12.10;6.50;;;;;;;10.63;61.32;97789.83;131347;1251;109112;-83
2024/03/28 03:52:40;;;;;;;13.60;6.40;;;;;;;10.63;61.62;97786.80;131338;1252;108771;-83
2024/03/28 03:55:53;;;;;;;12.60;7.20;;;;;;;10.64;61.74;97784.48;131344;1253;108740;-83
2024/03/28 03:58:58;;;;;;;16.40;6.70;;;;;;;10.65;61.55;97773.54;131553;1251;108311;-83
2024/03/28 04:02:04;;;;;;;11.30;6.50;;;;;;;10.67;61.68;97772.24;131678;1253;108628;-83
2024/03/28 04:05:10;;;;;;;10.80;6.90;;;;;;;10.69;61.82;97764.16;131640;1253;107707;-83
2024/03/28 04:08:16;;;;;;;13.50;6.60;;;;;;;10.71;61.97;97760.02;131490;1250;108458;-83
2024/03/28 04:11:21;;;;;;;12.30;6.70;;;;;;;10.72;61.89;97760.52;131298;1251;106889;-83
2024/03/28 04:14:27;;;;;;;11.70;6.20;;;;;;;10.72;61.98;97758.13;131418;1251;107662;-82
2024/03/28 04:17:36;;;;;;;16.30;7.00;;;;;;;10.73;61.84;97759.24;131522;1251;108514;-83
2024/03/28 04:20:41;;;;;;;13.50;6.70;;;;;;;10.77;61.81;97760.38;131428;1248;107705;-83
2024/03/28 04:23:48;;;;;;;13.10;6.60;;;;;;;10.79;62.17;97759.08;131472;1251;106501;-83
2024/03/28 04:26:53;;;;;;;12.30;6.10;;;;;;;10.81;62.13;97747.81;131520;1254;106346;-83
2024/03/28 04:29:58;;;;;;;13.00;6.40;;;;;;;10.84;62.21;97740.33;131537;1253;107826;-83
2024/03/28 04:33:04;;;;;;;11.70;6.10;;;;;;;10.87;62.12;97731.19;131510;1253;107523;-82
2024/03/28 04:36:10;;;;;;;9.80;6.20;;;;;;;10.89;62.29;97724.09;131512;1253;105538;-82
2024/03/28 04:39:15;;;;;;;12.90;6.70;;;;;;;10.91;62.38;97721.73;131513;1248;109190;-84
2024/03/28 04:42:21;;;;;;;10.50;6.50;;;;;;;10.92;62.52;97713.92;131657;1253;107037;-81
2024/03/28 04:45:26;;;;;;;14.30;6.30;;;;;;;10.93;62.61;97703.73;131485;1248;106634;-84
2024/03/28 04:48:32;;;;;;;13.70;6.30;;;;;;;10.96;62.92;97704.23;131410;1250;170676;-85
2024/03/28 04:51:38;;;;;;;13.60;6.40;;;;;;;10.98;63.27;97698.23;131921;1251;108659;-84
2024/03/28 04:54:43;;;;;;;13.80;6.60;;;;;;;10.98;63.72;97718.50;131806;1247;108925;-84
2024/03/28 04:57:48;;;;;;;16.20;7.90;;;;;;;10.97;64.01;97743.71;132138;1248;107775;-84
2024/03/28 05:00:55;;;;;;;20.50;8.70;;;;;;;10.96;63.79;97743.35;131904;1253;107016;-89
2024/03/28 05:04:00;;;;;;;17.30;7.40;;;;;;;11.01;64.39;97741.27;131662;1248;108756;-84
2024/03/28 05:07:06;;;;;;;13.90;6.90;;;;;;;11.07;64.25;97734.35;132092;1251;108713;-85
2024/03/28 05:10:11;;;;;;;18.90;6.50;;;;;;;11.15;64.21;97731.67;132393;1249;108211;-88
2024/03/28 05:13:16;;;;;;;13.10;6.10;;;;;;;11.24;64.12;97725.55;131386;1254;107737;-87
2024/03/28 05:16:21;;;;;;;15.70;7.00;;;;;;;11.31;64.14;97717.23;131408;1251;108593;-86
2024/03/28 05:19:26;;;;;;;16.20;7.00;;;;;;;11.36;64.24;97708.51;131366;1251;107551;-86
2024/03/28 05:22:32;;;;;;;11.80;6.50;;;;;;;11.41;63.91;97710.48;131363;1253;108541;-87
2024/03/28 05:25:37;;;;;;;11.10;7.20;;;;;;;11.43;63.85;97705.88;131348;1248;107523;-84
2024/03/28 05:28:42;;;;;;;14.60;9.60;;;;;;;11.45;63.88;97701.56;131632;1251;106590;-86
2024/03/28 05:31:47;;;;;;;20.80;10.90;;;;;;;11.43;63.98;97693.45;131393;1248;106743;-89
2024/03/28 05:34:53;;;;;;;56.50;35.40;;;;;;;11.46;64.12;97698.11;131471;1253;107938;-89
2024/03/28 05:37:58;;;;;;;16.90;9.70;;;;;;;11.48;64.21;97695.91;131394;1248;107742;-90
2024/03/28 05:41:03;;;;;;;16.60;8.70;;;;;;;11.53;64.36;97689.52;131394;1248;108419;-88
2024/03/28 05:44:09;;;;;;;14.90;7.80;;;;;;;11.59;64.22;97687.35;131491;1251;106840;-87
2024/03/28 05:47:14;;;;;;;19.40;7.50;;;;;;;11.63;64.06;97687.15;131290;1251;107553;-91
2024/03/28 05:50:20;;;;;;;14.30;6.40;;;;;;;11.67;63.94;97677.12;131524;1251;107628;-88
2024/03/28 05:53:25;;;;;;;14.60;6.90;;;;;;;11.71;63.98;97670.29;131285;1253;107710;-89
2024/03/28 05:56:30;;;;;;;17.30;6.50;;;;;;;11.75;64.17;97671.30;131338;1253;108603;-89
2024/03/28 05:59:35;;;;;;;13.10;6.40;;;;;;;11.80;64.11;97666.98;131902;1248;108375;-90
2024/03/28 06:02:41;;;;;;;11.70;6.50;;;;;;;11.84;63.97;97662.66;131605;1251;108472;-89
2024/03/28 06:05:46;;;;;;;16.50;6.90;;;;;;;11.91;64.24;97654.48;131525;1251;107605;-89
2024/03/28 06:08:52;;;;;;;16.20;7.40;;;;;;;12.00;64.19;97657.59;131514;1248;108771;-88
2024/03/28 06:11:57;;;;;;;18.40;7.40;;;;;;;12.09;64.12;97657.79;131378;1251;108713;-89
2024/03/28 06:15:03;;;;;;;16.30;8.60;;;;;;;12.20;64.12;97652.43;131678;1248;107733;-90
2024/03/28 06:18:09;;;;;;;17.30;7.90;;;;;;;12.30;64.25;97651.73;131287;1247;106665;-91
2024/03/28 06:21:15;;;;;;;14.00;7.70;;;;;;;12.42;64.23;97656.75;131518;1248;108438;-90
2024/03/28 06:24:20;;;;;;;13.20;6.70;;;;;;;12.54;63.98;97662.56;131479;1251;106762;-87
2024/03/28 06:27:26;;;;;;;14.90;8.90;;;;;;;12.69;64.21;97663.52;131536;1253;108513;-88
2024/03/28 06:30:31;;;;;;;21.80;8.90;;;;;;;12.87;64.07;97665.33;131563;1254;107719;-90
2024/03/28 06:33:36;;;;;;;16.40;8.40;;;;;;;13.04;64.00;97667.44;131436;1253;107196;-90
2024/03/28 06:36:41;;;;;;;17.90;7.60;;;;;;;13.16;63.84;97665.20;131377;1248;108332;-90
2024/03/28 06:39:47;;;;;;;14.50;7.20;;;;;;;13.26;63.67;97672.49;131475;1252;107610;-90
2024/03/28 06:42:52;;;;;;;14.10;7.40;;;;;;;13.33;63.71;97679.11;131477;1252;107251;-90
2024/03/28 06:45:58;;;;;;;13.70;7.40;;;;;;;13.36;63.57;97676.51;131444;1252;108667;-90
2024/03/28 06:49:03;;;;;;;14.70;7.60;;;;;;;13.33;63.86;97678.90;131371;1254;107438;-90
2024/03/28 06:52:11;;;;;;;17.20;7.70;;;;;;;13.30;64.07;97681.39;131414;1261;107874;-89
2024/03/28 06:55:16;;;;;;;16.80;8.50;;;;;;;13.17;64.72;97674.86;131626;1249;108336;-92
2024/03/28 06:58:22;;;;;;;18.90;8.70;;;;;;;13.09;65.20;97684.26;131373;1251;107236;-90
2024/03/28 07:01:27;;;;;;;16.60;8.30;;;;;;;13.01;65.33;97690.72;131375;1252;107216;-88
2024/03/28 07:04:33;;;;;;;15.20;8.50;;;;;;;12.92;65.25;97688.60;131474;1252;108724;-88
2024/03/28 07:07:38;;;;;;;13.10;8.00;;;;;;;12.91;65.29;97691.78;131484;1252;107069;-88
2024/03/28 07:10:44;;;;;;;14.90;7.80;;;;;;;12.91;65.28;97689.85;131438;1258;106312;-84
2024/03/28 07:13:49;;;;;;;15.00;8.00;;;;;;;12.95;65.26;97688.13;131438;1248;107186;-84
2024/03/28 07:16:54;;;;;;;15.40;7.70;;;;;;;12.95;65.27;97691.61;131702;1248;107015;-83
2024/03/28 07:20:00;;;;;;;15.40;7.90;;;;;;;12.95;65.40;97692.26;131415;1248;106677;-85
2024/03/28 07:23:05;;;;;;;16.70;7.50;;;;;;;12.95;65.43;97698.55;131419;1264;109415;-87
2024/03/28 07:26:10;;;;;;;19.70;8.10;;;;;;;12.95;65.28;97701.94;131511;1252;106527;-84
2024/03/28 07:29:16;;;;;;;24.20;12.50;;;;;;;12.95;65.28;97700.86;131494;1249;107171;-88
2024/03/28 07:32:21;;;;;;;17.70;8.20;;;;;;;12.94;65.43;97699.98;131547;1253;106212;-84
2024/03/28 07:35:26;;;;;;;21.60;10.40;;;;;;;12.95;65.52;97705.23;131543;1252;106656;-84
2024/03/28 07:38:32;;;;;;;22.60;11.10;;;;;;;13.02;65.65;97698.62;131511;1252;107067;-83
2024/03/28 07:41:37;;;;;;;22.70;9.90;;;;;;;13.20;65.77;97699.88;131520;1252;107987;-83
2024/03/28 07:44:42;;;;;;;18.20;8.80;;;;;;;13.44;65.73;97694.19;131567;1248;107755;-84
2024/03/28 07:47:48;;;;;;;20.10;8.90;;;;;;;13.64;65.66;97693.13;131497;1252;108427;-84
2024/03/28 07:50:59;;;;;;;26.30;12.60;;;;;;;13.79;65.39;97689.08;131410;1247;106232;-84
2024/03/28 07:54:04;;;;;;;23.90;9.50;;;;;;;13.98;65.36;97688.48;131457;1250;108762;-84
2024/03/28 07:57:09;;;;;;;18.90;8.00;;;;;;;14.15;65.48;97685.66;131316;1249;106565;-83
2024/03/28 08:00:17;;;;;;;23.00;9.20;;;;;;;14.33;65.16;97686.84;131342;1251;107401;-83
2024/03/28 08:03:52;;;;;;;21.60;10.50;;;;;;;14.50;64.92;97690.16;131304;1253;108885;-83
2024/03/28 08:07:25;;;;;;;21.20;9.60;;;;;;;14.69;64.73;97691.11;131141;1255;107856;-83
2024/03/28 08:10:31;;;;;;;20.40;7.90;;;;;;;14.86;64.95;97691.13;131474;1252;107571;-85
2024/03/28 08:13:36;;;;;;;24.90;9.50;;;;;;;14.97;64.61;97690.96;131652;1249;108984;-85
2024/03/28 08:16:42;;;;;;;23.30;11.20;;;;;;;15.05;64.65;97696.75;131684;1253;108652;-82
2024/03/28 08:19:47;;;;;;;23.00;11.30;;;;;;;15.10;64.17;97699.02;131621;1251;106577;-82
2024/03/28 08:22:53;;;;;;;21.00;8.40;;;;;;;15.09;64.47;97691.37;131449;1248;106841;-81
2024/03/28 08:25:58;;;;;;;22.50;10.10;;;;;;;14.99;64.39;97693.84;131500;1247;108731;-81
2024/03/28 08:29:03;;;;;;;20.20;9.30;;;;;;;14.88;64.64;97696.58;131344;1251;107830;-86
2024/03/28 08:32:08;;;;;;;20.70;10.60;;;;;;;14.74;65.05;97688.08;131367;1247;108324;-84
2024/03/28 08:35:14;;;;;;;19.80;9.90;;;;;;;14.64;65.49;97679.27;131380;1247;108653;-82
2024/03/28 08:38:19;;;;;;;19.90;9.90;;;;;;;14.60;65.74;97677.80;131742;1252;107629;-91
2024/03/28 08:41:24;;;;;;;20.50;10.60;;;;;;;14.56;66.02;97677.33;131579;1251;107067;-85
2024/03/28 08:44:30;;;;;;;20.60;11.50;;;;;;;14.53;66.26;97676.59;131345;1254;107644;-86
2024/03/28 08:47:36;;;;;;;21.50;10.00;;;;;;;14.51;66.16;97675.64;131380;1252;106351;-85
2024/03/28 08:50:41;;;;;;;16.60;8.00;;;;;;;14.56;66.31;97671.17;131367;1248;108358;-85
2024/03/28 08:53:47;;;;;;;19.00;9.20;;;;;;;14.64;66.08;97666.23;131397;1253;108571;-90
2024/03/28 08:56:52;;;;;;;26.00;9.80;;;;;;;14.75;66.29;97661.95;131372;1248;107071;-90
2024/03/28 08:59:57;;;;;;;23.20;8.90;;;;;;;14.93;66.13;97654.11;131969;1248;107693;-87
2024/03/28 09:03:02;;;;;;;21.00;8.50;;;;;;;15.17;66.33;97649.74;132585;1247;108020;-86
2024/03/28 09:06:09;;;;;;;22.00;9.90;;;;;;;15.41;66.10;97643.31;131813;1247;108659;-87
2024/03/28 09:09:15;;;;;;;19.90;7.40;;;;;;;15.64;65.97;97645.59;132195;1248;107181;-87
2024/03/28 09:12:21;;;;;;;18.90;7.60;;;;;;;15.88;65.78;97646.34;131563;1251;108618;-88
2024/03/28 09:15:26;;;;;;;16.80;6.70;;;;;;;16.09;65.56;97648.02;132404;1248;108553;-87
2024/03/28 09:18:31;;;;;;;21.70;7.10;;;;;;;16.18;65.32;97649.55;131773;1249;108721;-87
2024/03/28 09:21:36;;;;;;;27.80;7.90;;;;;;;16.17;65.21;97643.09;131607;1250;107674;-85
2024/03/28 09:24:42;;;;;;;27.10;10.80;;;;;;;16.11;65.25;97634.64;131585;1248;108601;-86
2024/03/28 09:27:47;;;;;;;19.70;7.50;;;;;;;16.08;65.26;97641.93;131589;1251;107514;-83
2024/03/28 09:30:52;;;;;;;32.00;13.00;;;;;;;16.06;65.19;97645.35;131509;1248;108793;-85
2024/03/28 09:33:57;;;;;;;29.20;13.60;;;;;;;16.02;65.08;97643.86;131432;1251;108741;-87
2024/03/28 09:37:03;;;;;;;27.00;11.10;;;;;;;16.00;65.15;97644.66;131642;1250;107520;-83
2024/03/28 09:40:13;;;;;;;27.10;8.10;;;;;;;16.06;65.11;97649.77;131669;1254;108895;-83
2024/03/28 09:43:20;;;;;;;28.60;9.00;;;;;;;16.16;65.18;97650.41;132208;1249;107448;-83
2024/03/28 09:46:25;;;;;;;24.30;7.90;;;;;;;16.27;64.97;97654.08;132032;1252;108744;-83
2024/03/28 09:49:31;;;;;;;27.30;8.00;;;;;;;16.39;64.79;97666.84;131662;1251;108614;-85
2024/03/28 09:52:37;;;;;;;27.10;8.70;;;;;;;16.51;64.71;97668.58;131510;1248;108358;-85
2024/03/28 09:55:44;;;;;;;25.70;7.70;;;;;;;16.67;64.46;97676.52;131540;1251;108488;-85
2024/03/28 09:58:50;;;;;;;23.50;8.50;;;;;;;16.84;64.00;97678.95;131392;1248;107741;-85
2024/03/28 10:01:59;;;;;;;24.30;7.00;;;;;;;16.98;63.65;97675.73;131438;1248;108470;-85
2024/03/28 10:05:05;;;;;;;27.60;7.70;;;;;;;17.14;63.99;97674.63;131396;1253;106312;-84
2024/03/28 10:08:11;;;;;;;28.60;7.80;;;;;;;17.26;63.42;97676.73;131360;1248;107797;-86
2024/03/28 10:11:18;;;;;;;25.20;7.80;;;;;;;17.32;63.39;97676.45;131298;1251;107405;-85
2024/03/28 10:14:26;;;;;;;25.70;9.60;;;;;;;17.35;63.47;97680.88;131433;1251;107855;-84
2024/03/28 10:17:34;;;;;;;32.30;9.20;;;;;;;17.30;63.42;97674.65;131402;1247;107787;-85
2024/03/28 10:20:40;;;;;;;24.10;8.00;;;;;;;17.31;63.35;97673.25;131445;1251;108554;-85
2024/03/28 10:23:45;;;;;;;19.80;7.30;;;;;;;17.34;63.31;97676.61;131501;1251;107612;-85
2024/03/28 10:26:51;;;;;;;22.40;7.50;;;;;;;17.36;63.22;97668.92;131261;1248;108738;-84
2024/03/28 10:29:57;;;;;;;24.50;8.00;;;;;;;17.46;62.99;97659.92;131372;1262;108507;-84
2024/03/28 10:33:04;;;;;;;31.00;8.60;;;;;;;17.55;62.93;97659.21;131620;1252;108122;-84
2024/03/28 10:36:09;;;;;;;25.00;8.50;;;;;;;17.66;62.78;97661.27;131478;1253;107811;-84
2024/03/28 10:39:15;;;;;;;23.20;7.80;;;;;;;17.76;62.62;97668.52;131686;1252;107914;-83
2024/03/28 10:42:20;;;;;;;29.80;9.40;;;;;;;17.83;62.62;97675.04;131605;1248;106057;-83
2024/03/28 10:45:27;;;;;;;28.40;10.00;;;;;;;17.90;62.51;97684.42;131522;1247;108513;-83
2024/03/28 10:48:33;;;;;;;25.30;7.40;;;;;;;17.89;61.80;97691.32;131490;1253;108569;-84
2024/03/28 10:51:49;;;;;;;24.90;6.60;;;;;;;17.79;61.40;97691.30;131249;1251;108780;-84
2024/03/28 10:55:05;;;;;;;26.40;6.70;;;;;;;17.74;61.68;97685.45;131325;1251;108517;-84
2024/03/28 10:58:12;;;;;;;20.60;6.20;;;;;;;17.79;61.37;97684.72;131305;1253;107668;-84
2024/03/28 11:01:18;;;;;;;28.20;11.10;;;;;;;17.80;61.04;97687.92;131382;1248;108782;-84
2024/03/28 11:04:24;;;;;;;23.60;7.20;;;;;;;17.75;61.17;97693.07;131527;1247;107684;-83
2024/03/28 11:07:30;;;;;;;19.80;6.30;;;;;;;17.65;61.06;97694.37;131324;1247;108322;-84
2024/03/28 11:10:36;;;;;;;18.90;5.40;;;;;;;17.50;60.88;97697.79;131272;1248;107996;-83
2024/03/28 11:13:41;;;;;;;23.30;7.20;;;;;;;17.42;61.10;97696.89;131348;1247;109143;-83
2024/03/28 11:16:46;;;;;;;18.90;5.10;;;;;;;17.41;60.72;97697.26;131402;1262;108697;-84
2024/03/28 11:20:08;;;;;;;57.70;31.10;;;;;;;17.50;60.88;97698.92;131548;1251;107272;-83
2024/03/28 11:23:16;;;;;;;26.20;9.90;;;;;;;17.63;60.72;97695.06;131420;1253;106827;-83
2024/03/28 11:26:24;;;;;;;23.40;8.50;;;;;;;17.78;60.57;97702.25;131257;1250;108730;-84
2024/03/28 11:29:30;;;;;;;20.10;6.30;;;;;;;17.90;60.24;97699.00;131236;1252;107840;-87
2024/03/28 11:32:36;;;;;;;21.80;7.50;;;;;;;17.94;59.89;97701.48;131620;1252;107450;-85
2024/03/28 11:35:42;;;;;;;27.40;12.10;;;;;;;18.00;59.69;97701.25;131699;1253;108691;-86
2024/03/28 11:38:47;;;;;;;21.00;6.30;;;;;;;18.07;59.58;97693.06;131414;1251;108398;-87
2024/03/28 11:41:54;;;;;;;25.40;10.40;;;;;;;18.11;59.76;97690.77;131503;1252;107137;-88
2024/03/28 11:45:07;;;;;;;23.80;8.50;;;;;;;18.16;59.72;97694.98;131583;1249;107737;-86
2024/03/28 11:48:13;;;;;;;18.50;5.60;;;;;;;18.09;59.49;97692.58;131190;1252;107707;-86
2024/03/28 11:51:20;;;;;;;21.90;5.70;;;;;;;18.02;59.66;97687.06;131384;1249;107801;-87
2024/03/28 11:54:25;;;;;;;19.60;6.00;;;;;;;17.91;59.61;97694.20;131297;1247;108685;-86
2024/03/28 11:57:31;;;;;;;21.80;5.70;;;;;;;17.75;59.37;97701.21;131267;1253;107240;-87
2024/03/28 12:00:36;;;;;;;18.00;6.10;;;;;;;17.56;59.59;97715.14;131134;1254;108579;-86
2024/03/28 12:03:44;;;;;;;20.90;6.20;;;;;;;17.40;59.72;97713.30;131239;1248;107721;-85
2024/03/28 12:06:49;;;;;;;18.80;5.50;;;;;;;17.24;59.79;97715.20;131225;1252;108752;-85
2024/03/28 12:09:54;;;;;;;21.20;5.60;;;;;;;17.10;59.78;97715.68;131409;1252;107570;-87
2024/03/28 12:13:02;;;;;;;18.30;5.80;;;;;;;17.04;60.01;97713.77;131433;1254;108511;-84
2024/03/28 12:16:07;;;;;;;20.40;5.60;;;;;;;17.06;59.93;97710.48;131580;1250;108756;-86
2024/03/28 12:19:13;;;;;;;19.40;5.00;;;;;;;17.19;59.92;97712.58;131688;1252;107693;-86
2024/03/28 12:22:18;;;;;;;17.40;5.90;;;;;;;17.28;59.93;97709.84;131303;1252;108547;-86
2024/03/28 12:25:24;;;;;;;18.60;5.50;;;;;;;17.32;59.86;97705.81;131276;1248;109000;-86
2024/03/28 12:28:29;;;;;;;16.30;5.30;;;;;;;17.33;59.77;97696.83;131472;1253;108853;-86
2024/03/28 12:31:34;;;;;;;16.80;5.10;;;;;;;17.31;59.51;97696.27;131291;1249;107952;-87
2024/03/28 12:34:49;;;;;;;16.90;4.70;;;;;;;17.28;59.42;97693.30;131264;1263;106949;-86
2024/03/28 12:37:56;;;;;;;17.20;5.70;;;;;;;17.24;59.37;97699.57;131250;1249;107389;-85
2024/03/28 12:41:01;;;;;;;20.70;5.40;;;;;;;17.25;59.61;97696.13;131440;1253;108696;-86
2024/03/28 12:44:07;;;;;;;18.70;4.90;;;;;;;17.27;59.60;97697.92;131460;1251;107767;-86
2024/03/28 12:47:13;;;;;;;19.00;4.80;;;;;;;17.30;59.58;97697.45;131374;1252;108066;-87
2024/03/28 12:50:20;;;;;;;15.80;5.50;;;;;;;17.29;58.97;97693.56;131456;1254;108679;-85
2024/03/28 12:53:27;;;;;;;12.30;3.90;;;;;;;17.27;59.04;97688.16;131248;1248;108701;-86
2024/03/28 12:56:32;;;;;;;39.80;22.60;;;;;;;17.24;58.71;97691.32;131385;1252;108598;-85
2024/03/28 12:59:43;;;;;;;10.10;5.20;;;;;;;17.21;58.35;97694.90;131251;1252;106674;-86
2024/03/28 13:02:50;;;;;;;9.30;6.20;;;;;;;17.23;57.50;97700.09;131204;1250;108399;-85
2024/03/28 13:05:56;;;;;;;6.20;2.20;;;;;;;17.23;56.60;97703.83;131311;1253;107804;-85
2024/03/28 13:09:02;;;;;;;5.20;1.80;;;;;;;17.25;56.75;97711.75;131410;1252;108246;-86
2024/03/28 13:12:09;;;;;;;3.50;1.70;;;;;;;17.31;56.76;97717.93;131198;1252;107326;-85
2024/03/28 13:15:14;;;;;;;2.50;1.40;;;;;;;17.36;56.37;97718.04;131304;1249;108481;-84
2024/03/28 13:18:22;;;;;;;2.90;1.60;;;;;;;17.34;55.85;97724.65;131412;1248;108653;-87
2024/03/28 13:21:35;;;;;;;5.80;1.50;;;;;;;17.30;55.89;97730.44;131519;1253;107682;-86
2024/03/28 13:24:40;;;;;;;4.60;1.50;;;;;;;17.20;56.05;97735.43;131160;1249;106548;-86
2024/03/28 13:27:45;;;;;;;2.50;1.60;;;;;;;17.10;56.11;97745.75;131376;1252;107753;-84
2024/03/28 13:30:56;;;;;;;3.30;1.40;;;;;;;17.00;56.17;97749.65;131396;1252;108396;-84
2024/03/28 13:34:05;;;;;;;4.50;1.70;;;;;;;16.90;56.00;97753.33;131586;1247;107675;-83
2024/03/28 13:37:11;;;;;;;2.80;1.60;;;;;;;16.85;55.53;97761.55;131461;1251;107115;-82
2024/03/28 13:40:25;;;;;;;4.70;1.60;;;;;;;16.80;55.63;97769.80;131724;1253;107613;-82
2024/03/28 13:43:30;;;;;;;4.80;2.50;;;;;;;16.74;55.76;97775.89;133610;1251;108516;-83
2024/03/28 13:46:38;;;;;;;2.20;1.50;;;;;;;16.70;55.92;97783.27;131981;1252;107520;-81
2024/03/28 13:49:50;;;;;;;3.30;1.20;;;;;;;16.62;56.18;97805.16;131566;1253;107693;-81
2024/03/28 13:52:58;;;;;;;3.50;1.40;;;;;;;16.55;56.28;97812.14;131636;1250;108645;-85
2024/03/28 13:56:07;;;;;;;1.60;1.00;;;;;;;16.48;56.39;97815.14;131886;1249;107378;-83
2024/03/28 13:59:12;;;;;;;1.60;1.00;;;;;;;16.47;56.37;97822.17;132954;1248;108612;-84
2024/03/28 14:02:17;;;;;;;1.20;1.00;;;;;;;16.32;56.41;97831.84;132217;1250;107673;-83
2024/03/28 14:05:24;;;;;;;2.30;1.00;;;;;;;16.16;56.53;97832.77;131502;1253;107681;-85
2024/03/28 14:08:30;;;;;;;1.40;1.00;;;;;;;16.07;56.93;97843.02;131522;1248;106743;-83
2024/03/28 14:11:36;;;;;;;1.20;0.80;;;;;;;16.02;56.89;97852.80;131531;1253;108517;-84
2024/03/28 14:14:43;;;;;;;4.20;1.70;;;;;;;15.96;56.85;97853.98;131620;1248;108642;-83